Time,TemperatureF,DewpointF,PressureIn,WindDirection,WindDirectionDegrees,WindSpeedMPH,WindSpeedGustMPH,Humidity,HourlyPrecipIn,Conditions,Clouds,dailyrainin,SoftwareType,DateUTC
2013-09-19 00:10:00,59.2,49.0,30.18,WNW,283,1.0,6.0,70,0.00,,,0.00,weatherlink.com 1.10,2013-09-19 04:10:00,
2013-09-19 00:25:00,58.8,49.0,30.18,WSW,243,4.0,6.0,71,0.00,,,0.00,weatherlink.com 1.10,2013-09-19 04:25:00,
2013-09-19 00:40:00,58.5,49.0,30.18,NW,308,3.0,6.0,71,0.00,,,0.00,weatherlink.com 1.10,2013-09-19 04:40:00,
2013-09-19 00:55:00,58.1,49.0,30.18,SW,235,1.0,7.0,72,0.00,,,0.00,weatherlink.com 1.10,2013-09-19 04:55:00,
2013-09-19 01:10:00,57.9,49.0,30.18,West,270,0.0,5.0,72,0.00,,,0.00,weatherlink.com 1.10,2013-09-19 05:10:00,
2013-09-19 01:25:00,57.4,48.0,30.18,West,269,1.0,5.0,72,0.00,,,0.00,weatherlink.com 1.10,2013-09-19 05:25:00,
2013-09-19 01:40:00,57.0,48.0,30.17,NW,304,0.0,4.0,72,0.00,,,0.00,weatherlink.com 1.10,2013-09-19 05:40:00,
2013-09-19 01:55:00,56.8,48.0,30.17,WSW,240,1.0,4.0,72,0.00,,,0.00,weatherlink.com 1.10,2013-09-19 05:55:00,
2013-09-19 02:10:00,56.6,48.0,30.17,West,270,1.0,4.0,73,0.00,,,0.00,weatherlink.com 1.10,2013-09-19 06:10:00,
2013-09-19 02:26:00,56.5,48.0,30.16,SSW,207,1.0,6.0,73,0.00,,,0.00,weatherlink.com 1.10,2013-09-19 06:26:00,
2013-09-19 02:41:00,56.5,48.0,30.16,West,280,1.0,4.0,73,0.00,,,0.00,weatherlink.com 1.10,2013-09-19 06:41:00,
2013-09-19 02:56:00,56.3,48.0,30.16,South,183,0.0,4.0,73,0.00,,,0.00,weatherlink.com 1.10,2013-09-19 06:56:00,
2013-09-19 03:11:00,56.0,47.0,30.16,WNW,293,1.0,4.0,73,0.00,,,0.00,weatherlink.com 1.10,2013-09-19 07:11:00,
2013-09-19 03:26:00,55.7,47.0,30.16,West,280,0.0,4.0,73,0.00,,,0.00,weatherlink.com 1.10,2013-09-19 07:26:00,
2013-09-19 03:41:00,55.7,48.0,30.15,WSW,252,0.0,5.0,74,0.00,,,0.00,weatherlink.com 1.10,2013-09-19 07:41:00,
2013-09-19 03:56:00,55.5,47.0,30.15,SW,233,0.0,3.0,74,0.00,,,0.00,weatherlink.com 1.10,2013-09-19 07:56:00,
2013-09-19 04:11:00,55.1,47.0,30.15,SW,224,0.0,4.0,74,0.00,,,0.00,weatherlink.com 1.10,2013-09-19 08:11:00,
2013-09-19 04:26:00,54.9,47.0,30.15,WSW,248,1.0,2.0,75,0.00,,,0.00,weatherlink.com 1.10,2013-09-19 08:26:00,
2013-09-19 04:41:00,54.7,47.0,30.16,WSW,248,0.0,3.0,75,0.00,,,0.00,weatherlink.com 1.10,2013-09-19 08:41:00,
2013-09-19 04:56:00,54.5,47.0,30.16,WSW,242,0.0,3.0,75,0.00,,,0.00,weatherlink.com 1.10,2013-09-19 08:56:00,
2013-09-19 05:11:00,54.1,47.0,30.15,SW,232,0.0,2.0,76,0.00,,,0.00,weatherlink.com 1.10,2013-09-19 09:11:00,
2013-09-19 05:26:00,54.1,47.0,30.15,West,259,0.0,2.0,76,0.00,,,0.00,weatherlink.com 1.10,2013-09-19 09:26:00,
2013-09-19 05:41:00,54.1,47.0,30.16,WSW,243,1.0,3.0,76,0.00,,,0.00,weatherlink.com 1.10,2013-09-19 09:41:00,
2013-09-19 05:56:00,54.0,47.0,30.16,NW,312,0.0,2.0,76,0.00,,,0.00,weatherlink.com 1.10,2013-09-19 09:56:00,
2013-09-19 06:11:00,53.8,46.0,30.16,WSW,252,2.0,5.0,76,0.00,,,0.00,weatherlink.com 1.10,2013-09-19 10:11:00,
2013-09-19 06:26:00,53.5,46.0,30.16,WNW,298,2.0,5.0,77,0.00,,,0.00,weatherlink.com 1.10,2013-09-19 10:26:00,
2013-09-19 06:41:00,53.8,47.0,30.16,NW,311,0.0,5.0,77,0.00,,,0.00,weatherlink.com 1.10,2013-09-19 10:41:00,
2013-09-19 06:56:00,54.3,47.0,30.17,West,277,1.0,3.0,76,0.00,,,0.00,weatherlink.com 1.10,2013-09-19 10:56:00,
2013-09-19 07:11:00,55.2,47.0,30.17,WNW,283,0.0,5.0,74,0.00,,,0.00,weatherlink.com 1.10,2013-09-19 11:11:00,
2013-09-19 07:26:00,55.8,47.0,30.17,NW,307,3.0,8.0,73,0.00,,,0.00,weatherlink.com 1.10,2013-09-19 11:26:00,
2013-09-19 07:41:00,56.4,47.0,30.17,West,267,2.0,7.0,72,0.00,,,0.00,weatherlink.com 1.10,2013-09-19 11:41:00,
2013-09-19 07:56:00,57.5,48.0,30.16,West,266,2.0,5.0,70,0.00,,,0.00,weatherlink.com 1.10,2013-09-19 11:56:00,
2013-09-19 08:11:00,57.9,48.0,30.16,West,278,4.0,7.0,69,0.00,,,0.00,weatherlink.com 1.10,2013-09-19 12:11:00,
2013-09-19 08:26:00,58.8,48.0,30.16,West,266,2.0,6.0,67,0.00,,,0.00,weatherlink.com 1.10,2013-09-19 12:26:00,
2013-09-19 08:41:00,60.1,49.0,30.16,WNW,287,0.0,3.0,66,0.00,,,0.00,weatherlink.com 1.10,2013-09-19 12:41:00,
2013-09-19 08:56:00,61.2,49.0,30.17,West,276,2.0,4.0,64,0.00,,,0.00,weatherlink.com 1.10,2013-09-19 12:56:00,
2013-09-19 09:11:00,62.5,49.0,30.17,West,273,1.0,4.0,61,0.00,,,0.00,weatherlink.com 1.10,2013-09-19 13:11:00,
2013-09-19 09:26:00,63.8,49.0,30.17,NW,323,1.0,5.0,59,0.00,,,0.00,weatherlink.com 1.10,2013-09-19 13:26:00,
2013-09-19 09:41:00,65.0,50.0,30.16,SW,220,1.0,6.0,59,0.00,,,0.00,weatherlink.com 1.10,2013-09-19 13:41:00,
2013-09-19 09:56:00,65.9,50.0,30.17,NW,320,1.0,5.0,57,0.00,,,0.00,weatherlink.com 1.10,2013-09-19 13:56:00,
2013-09-19 10:11:00,67.3,50.0,30.16,NE,53,0.0,5.0,55,0.00,,,0.00,weatherlink.com 1.10,2013-09-19 14:11:00,
2013-09-19 10:27:00,69.3,51.0,30.16,SSE,150,2.0,2.0,52,0.00,,,0.00,weatherlink.com 1.10,2013-09-19 14:27:00,
2013-09-19 10:42:00,70.3,50.0,30.16,WNW,301,1.0,4.0,48,0.00,,,0.00,weatherlink.com 1.10,2013-09-19 14:42:00,
2013-09-19 10:57:00,70.3,49.0,30.16,West,266,3.0,5.0,47,0.00,,,0.00,weatherlink.com 1.10,2013-09-19 14:57:00,
2013-09-19 11:12:00,70.9,50.0,30.15,ESE,103,2.0,5.0,47,0.00,,,0.00,weatherlink.com 1.10,2013-09-19 15:12:00,
2013-09-19 11:27:00,72.3,50.0,30.15,West,281,2.0,4.0,45,0.00,,,0.00,weatherlink.com 1.10,2013-09-19 15:27:00,
2013-09-19 11:42:00,72.6,51.0,30.15,ESE,120,2.0,5.0,46,0.00,,,0.00,weatherlink.com 1.10,2013-09-19 15:42:00,
2013-09-19 11:57:00,72.7,50.0,30.14,NE,51,3.0,5.0,45,0.00,,,0.00,weatherlink.com 1.10,2013-09-19 15:57:00,
2013-09-19 12:12:00,73.2,51.0,30.14,NE,50,3.0,7.0,46,0.00,,,0.00,weatherlink.com 1.10,2013-09-19 16:12:00,
2013-09-19 12:27:00,72.7,51.0,30.14,ENE,60,6.0,8.0,46,0.00,,,0.00,weatherlink.com 1.10,2013-09-19 16:27:00,
2013-09-19 12:42:00,71.9,50.0,30.14,East,79,3.0,6.0,47,0.00,,,0.00,weatherlink.com 1.10,2013-09-19 16:42:00,
2013-09-19 12:57:00,72.7,51.0,30.13,ENE,65,2.0,6.0,47,0.00,,,0.00,weatherlink.com 1.10,2013-09-19 16:57:00,
2013-09-19 13:12:00,72.6,51.0,30.13,ENE,71,4.0,8.0,47,0.00,,,0.00,weatherlink.com 1.10,2013-09-19 17:12:00,
2013-09-19 13:27:00,73.4,51.0,30.13,NE,51,4.0,6.0,46,0.00,,,0.00,weatherlink.com 1.10,2013-09-19 17:27:00,
2013-09-19 13:42:00,73.1,52.0,30.12,ESE,119,4.0,7.0,47,0.00,,,0.00,weatherlink.com 1.10,2013-09-19 17:42:00,
2013-09-19 13:57:00,71.8,51.0,30.12,East,79,4.0,7.0,49,0.00,,,0.00,weatherlink.com 1.10,2013-09-19 17:57:00,
2013-09-19 14:12:00,72.5,51.0,30.11,East,95,4.0,8.0,47,0.00,,,0.00,weatherlink.com 1.10,2013-09-19 18:12:00,
2013-09-19 14:27:00,73.4,52.0,30.11,ENE,75,0.0,6.0,47,0.00,,,0.00,weatherlink.com 1.10,2013-09-19 18:27:00,
2013-09-19 14:42:00,73.9,52.0,30.10,ESE,114,2.0,5.0,47,0.00,,,0.00,weatherlink.com 1.10,2013-09-19 18:42:00,
2013-09-19 14:57:00,73.5,52.0,30.10,NE,56,4.0,6.0,47,0.00,,,0.00,weatherlink.com 1.10,2013-09-19 18:57:00,
2013-09-19 15:12:00,72.8,51.0,30.10,NE,56,5.0,8.0,47,0.00,,,0.00,weatherlink.com 1.10,2013-09-19 19:12:00,
2013-09-19 15:27:00,73.3,52.0,30.09,ENE,64,6.0,6.0,47,0.00,,,0.00,weatherlink.com 1.10,2013-09-19 19:27:00,
2013-09-19 15:42:00,74.1,52.0,30.09,ESE,117,1.0,4.0,47,0.00,,,0.00,weatherlink.com 1.10,2013-09-19 19:42:00,
2013-09-19 15:57:00,75.3,52.0,30.08,SE,127,0.0,5.0,45,0.00,,,0.00,weatherlink.com 1.10,2013-09-19 19:57:00,
2013-09-19 16:12:00,75.6,52.0,30.08,ENE,75,4.0,6.0,44,0.00,,,0.00,weatherlink.com 1.10,2013-09-19 20:12:00,
2013-09-19 16:27:00,74.3,52.0,30.08,East,89,5.0,7.0,46,0.00,,,0.00,weatherlink.com 1.10,2013-09-19 20:27:00,
2013-09-19 16:42:00,73.6,52.0,30.08,ENE,64,2.0,6.0,47,0.00,,,0.00,weatherlink.com 1.10,2013-09-19 20:42:00,
2013-09-19 16:57:00,72.4,52.0,30.08,East,94,5.0,6.0,49,0.00,,,0.00,weatherlink.com 1.10,2013-09-19 20:57:00,
2013-09-19 17:12:00,72.2,52.0,30.08,ESE,115,1.0,5.0,49,0.00,,,0.00,weatherlink.com 1.10,2013-09-19 21:12:00,
2013-09-19 17:27:00,71.3,52.0,30.08,ENE,78,3.0,6.0,50,0.00,,,0.00,weatherlink.com 1.10,2013-09-19 21:27:00,
2013-09-19 17:42:00,70.9,52.0,30.08,NE,48,3.0,6.0,51,0.00,,,0.00,weatherlink.com 1.10,2013-09-19 21:42:00,
2013-09-19 17:57:00,70.3,52.0,30.07,ENE,65,1.0,4.0,52,0.00,,,0.00,weatherlink.com 1.10,2013-09-19 21:57:00,
2013-09-19 18:12:00,70.1,52.0,30.08,East,79,2.0,4.0,53,0.00,,,0.00,weatherlink.com 1.10,2013-09-19 22:12:00,
2013-09-19 18:27:00,69.6,52.0,30.08,East,82,2.0,3.0,54,0.00,,,0.00,weatherlink.com 1.10,2013-09-19 22:27:00,
2013-09-19 18:42:00,69.1,52.0,30.08,ENE,57,0.0,1.0,55,0.00,,,0.00,weatherlink.com 1.10,2013-09-19 22:42:00,
2013-09-19 18:57:00,69.0,52.0,30.08,ESE,112,1.0,1.0,56,0.00,,,0.00,weatherlink.com 1.10,2013-09-19 22:57:00,
2013-09-19 19:12:00,68.8,52.0,30.08,ESE,110,0.0,0.0,56,0.00,,,0.00,weatherlink.com 1.10,2013-09-19 23:12:00,
2013-09-19 19:27:00,68.2,52.0,30.09,ESE,110,0.0,0.0,57,0.00,,,0.00,weatherlink.com 1.10,2013-09-19 23:27:00,
2013-09-19 19:42:00,67.7,53.0,30.09,ESE,110,0.0,0.0,59,0.00,,,0.00,weatherlink.com 1.10,2013-09-19 23:42:00,
2013-09-19 19:57:00,67.6,53.0,30.09,ESE,111,0.0,0.0,60,0.00,,,0.00,weatherlink.com 1.10,2013-09-19 23:57:00,
2013-09-19 20:12:00,67.1,53.0,30.09,ESE,115,0.0,0.0,61,0.00,,,0.00,weatherlink.com 1.10,2013-09-20 00:12:00,
2013-09-19 20:27:00,66.4,54.0,30.10,ESE,115,0.0,0.0,64,0.00,,,0.00,weatherlink.com 1.10,2013-09-20 00:27:00,
2013-09-19 20:43:00,68.0,55.0,30.10,WSW,245,0.0,5.0,63,0.00,,,0.00,weatherlink.com 1.10,2013-09-20 00:43:00,
2013-09-19 20:58:00,68.2,55.0,30.10,WNW,298,2.0,2.0,63,0.00,,,0.00,weatherlink.com 1.10,2013-09-20 00:58:00,
2013-09-19 21:13:00,68.1,55.0,30.10,West,276,4.0,4.0,63,0.00,,,0.00,weatherlink.com 1.10,2013-09-20 01:13:00,
2013-09-19 21:29:00,67.9,54.0,30.10,WSW,256,0.0,3.0,62,0.00,,,0.00,weatherlink.com 1.10,2013-09-20 01:29:00,
2013-09-19 21:43:00,67.4,54.0,30.10,WNW,291,1.0,3.0,63,0.00,,,0.00,weatherlink.com 1.10,2013-09-20 01:43:00,
2013-09-19 21:58:00,67.0,54.0,30.10,WNW,301,1.0,3.0,64,0.00,,,0.00,weatherlink.com 1.10,2013-09-20 01:58:00,
2013-09-19 22:13:00,65.9,54.0,30.11,SSW,209,3.0,4.0,66,0.00,,,0.00,weatherlink.com 1.10,2013-09-20 02:13:00,
2013-09-19 22:28:00,64.7,54.0,30.10,SE,146,0.0,2.0,68,0.00,,,0.00,weatherlink.com 1.10,2013-09-20 02:28:00,
2013-09-19 22:43:00,64.3,53.0,30.10,West,271,1.0,4.0,68,0.00,,,0.00,weatherlink.com 1.10,2013-09-20 02:43:00,
2013-09-19 22:58:00,65.0,53.0,30.10,WSW,258,0.0,5.0,66,0.00,,,0.00,weatherlink.com 1.10,2013-09-20 02:58:00,
2013-09-19 23:13:00,64.8,54.0,30.10,WSW,240,1.0,6.0,67,0.00,,,0.00,weatherlink.com 1.10,2013-09-20 03:13:00,
2013-09-19 23:28:00,64.6,54.0,30.10,West,262,0.0,4.0,68,0.00,,,0.00,weatherlink.com 1.10,2013-09-20 03:28:00,
2013-09-19 23:43:00,64.0,54.0,30.10,NW,319,0.0,2.0,69,0.00,,,0.00,weatherlink.com 1.10,2013-09-20 03:43:00,
2013-09-19 23:58:00,63.8,54.0,30.10,WSW,245,0.0,2.0,70,0.00,,,0.00,weatherlink.com 1.10,2013-09-20 03:58:00,